Item Display Status Serial CT Sensor

Mooring Depth: 1 m

 

Deployed Sensor

  • Serial Number: 14624
  • NDBC Property Number: 40636
  • Start Date: 6/25/2020 (11:53:57 Z)
  • End Date: Currently Active
Water Temperature [°C]     6 entries per hour
Showing data from 7/24/2021 (09:00:00 Z) to 7/23/2021 (00:00:01 Z)
Previous Next [ Day | 3-Days | 7-Days ]
First Last
Prev [ Day | 3-Days | 7-Days ] Next
First Last

Start Time:     :
End Time:     :     
Time (in GMT) :00 :50 :40 :30 :20 :10
Previous Next [ Day | 3-Days | 7-Days ]
First Last
Prev [ Day | 3-Days | 7-Days ] Next
First Last


123 => good data
MM => data is determined as missing
-- => data not received/configured
Back to Top Back to Top
7/24/2021 09:00 to 8:10 28.956 28.953 28.950 28.947 28.956 28.961
7/24/2021 08:00 to 7:10 28.957 28.961 28.962 28.963 28.974 28.976
7/24/2021 07:00 to 6:10 28.975 28.989 28.979 28.980 28.987 28.980
7/24/2021 06:00 to 5:10 28.982 28.982 28.986 28.991 28.995 28.995
7/24/2021 05:00 to 4:10 28.996 29.004 29.000 28.993 28.994 28.999
7/24/2021 04:00 to 3:10 29.006 29.007 29.002 29.013 29.005 29.002
7/24/2021 03:00 to 2:10 29.006 28.998 28.981 28.982 28.977 28.979
7/24/2021 02:00 to 1:10 28.972 28.956 28.960 28.957 28.963 28.965
7/24/2021 01:00 to 0:10 28.970 28.979 28.971 28.969 28.983 28.989
7/24/2021 00:00 to 23:10 28.969 29.004 29.000 28.985 28.979 28.968
7/23/2021 23:00 to 22:10 28.950 28.960 28.942 28.946 28.944 28.937
7/23/2021 22:00 to 21:10 28.922 28.920 28.911 28.912 28.910 28.906
7/23/2021 21:00 to 20:10 28.902 28.900 28.895 28.897 28.896 28.892
7/23/2021 20:00 to 19:10 28.891 28.881 28.883 28.896 28.894 28.900
7/23/2021 19:00 to 18:10 28.895 28.901 28.898 28.895 28.898 28.896
7/23/2021 18:00 to 17:10 28.891 28.897 28.899 28.892 28.894 28.905
7/23/2021 17:00 to 16:10 28.886 28.898 28.903 28.902 28.894 28.894
7/23/2021 16:00 to 15:10 28.901 28.900 28.895 28.900 28.902 28.906
7/23/2021 15:00 to 14:10 28.895 28.907 28.901 28.909 28.900 28.905
7/23/2021 14:00 to 13:10 28.909 28.912 28.902 28.894 28.903 28.899
7/23/2021 13:00 to 12:10 28.903 28.899 28.910 28.907 28.906 28.906
7/23/2021 12:00 to 11:10 28.906 28.902 28.901 28.912 28.911 28.896
7/23/2021 11:00 to 10:10 28.912 28.915 28.895 28.909 28.899 28.913
7/23/2021 10:00 to 9:10 28.907 28.918 28.910 28.918 28.919 28.922
7/23/2021 09:00 to 8:10 28.918 28.918 28.909 28.917 28.924 28.917
7/23/2021 08:00 to 7:10 28.915 28.926 28.923 28.925 28.932 28.931
7/23/2021 07:00 to 6:10 28.937 28.925 28.928 28.930 28.925 28.934
7/23/2021 06:00 to 5:10 28.934 28.932 28.938 28.937 28.944 28.951
7/23/2021 05:00 to 4:10 28.945 28.948 28.945 28.954 28.958 28.961
7/23/2021 04:00 to 3:10 28.961 28.962 28.963 28.966 28.962 28.966
7/23/2021 03:00 to 2:10 28.963 28.979 28.967 28.972 28.975 28.980
7/23/2021 02:00 to 1:10 28.994 29.006 28.988 28.978 28.967 28.971
7/23/2021 01:00 to 0:10 28.950 28.943 28.939 28.935 28.936 28.936

 

 

 

Conductivity [S/m]     6 entries per hour
Showing data from 7/24/2021 (09:00:00 Z) to 7/23/2021 (00:00:01 Z)
Previous Next [ Day | 3-Days | 7-Days ]
First Last
Prev [ Day | 3-Days | 7-Days ] Next
First Last

Start Time:     :
End Time:     :     
Time (in GMT) :00 :50 :40 :30 :20 :10
Previous Next [ Day | 3-Days | 7-Days ]
First Last
Prev [ Day | 3-Days | 7-Days ] Next
First Last


123 => good data
MM => data is determined as missing
-- => data not received/configured
Back to Top Back to Top
7/24/2021 09:00 to 8:10 5.82131 5.82164 5.82120 5.82070 5.82154 5.82217
7/24/2021 08:00 to 7:10 5.82179 5.82233 5.82248 5.82256 5.82351 5.82406
7/24/2021 07:00 to 6:10 5.82378 5.82510 5.82405 5.82435 5.82487 5.82406
7/24/2021 06:00 to 5:10 5.82419 5.82431 5.82451 5.82471 5.82513 5.82497
7/24/2021 05:00 to 4:10 5.82505 5.82605 5.82586 5.82528 5.82524 5.82600
7/24/2021 04:00 to 3:10 5.82655 5.82665 5.82619 5.82716 5.82628 5.82618
7/24/2021 03:00 to 2:10 5.82680 5.82554 5.82393 5.82410 5.82321 5.82352
7/24/2021 02:00 to 1:10 5.82228 5.82107 5.82158 5.82081 5.82139 5.82066
7/24/2021 01:00 to 0:10 5.82151 5.82245 5.82124 5.82027 5.82454 5.82525
7/24/2021 00:00 to 23:10 5.82295 5.82684 5.82582 5.82459 5.82364 5.82264
7/23/2021 23:00 to 22:10 5.82041 5.82178 5.81969 5.81997 5.81932 5.81884
7/23/2021 22:00 to 21:10 5.81719 5.81693 5.81569 5.81565 5.81512 5.81492
7/23/2021 21:00 to 20:10 5.81446 5.81407 5.81333 5.81352 5.81313 5.81272
7/23/2021 20:00 to 19:10 5.81262 5.81151 5.81188 5.81526 5.81561 5.81567
7/23/2021 19:00 to 18:10 5.81523 5.81575 5.81551 5.81566 5.81567 5.81571
7/23/2021 18:00 to 17:10 5.81584 5.81528 5.81557 5.81453 5.81496 5.81614
7/23/2021 17:00 to 16:10 5.81435 5.81499 5.81528 5.81528 5.81437 5.81387
7/23/2021 16:00 to 15:10 5.81499 5.81517 5.81459 5.81490 5.81481 5.81523
7/23/2021 15:00 to 14:10 5.81428 5.81560 5.81508 5.81551 5.81486 5.81526
7/23/2021 14:00 to 13:10 5.81569 5.81578 5.81569 5.81426 5.81507 5.81479
7/23/2021 13:00 to 12:10 5.81459 5.81479 5.81579 5.81548 5.81523 5.81516
7/23/2021 12:00 to 11:10 5.81508 5.81410 5.81255 5.81585 5.81579 5.81412
7/23/2021 11:00 to 10:10 5.81620 5.81622 5.81447 5.81552 5.81499 5.81612
7/23/2021 10:00 to 9:10 5.81515 5.81688 5.81593 5.81681 5.81676 5.81686
7/23/2021 09:00 to 8:10 5.81702 5.81680 5.81614 5.81649 5.81723 5.81690
7/23/2021 08:00 to 7:10 5.81633 5.81747 5.81750 5.81816 5.81845 5.81833
7/23/2021 07:00 to 6:10 5.81873 5.81789 5.81814 5.81835 5.81808 5.81857
7/23/2021 06:00 to 5:10 5.81873 5.81843 5.81892 5.81882 5.81965 5.82029
7/23/2021 05:00 to 4:10 5.81996 5.82006 5.81997 5.82059 5.82099 5.82116
7/23/2021 04:00 to 3:10 5.82101 5.82122 5.82121 5.82124 5.82054 5.82127
7/23/2021 03:00 to 2:10 5.82070 5.82111 5.81938 5.82000 5.81555 5.82035
7/23/2021 02:00 to 1:10 5.82557 5.82714 5.82479 5.82407 5.82269 5.82266
7/23/2021 01:00 to 0:10 5.82073 5.82002 5.81927 5.81927 5.81929 5.81920

 

 

 

Salinity [psu]     6 entries per hour
Showing data from 7/24/2021 (09:00:00 Z) to 7/23/2021 (00:00:01 Z)
Previous Next [ Day | 3-Days | 7-Days ]
First Last
Prev [ Day | 3-Days | 7-Days ] Next
First Last

Start Time:     :
End Time:     :     
Time (in GMT) :00 :50 :40 :30 :20 :10
Previous Next [ Day | 3-Days | 7-Days ]
First Last
Prev [ Day | 3-Days | 7-Days ] Next
First Last


123 => good data
MM => data is determined as missing
-- => data not received/configured
Back to Top Back to Top
7/24/2021 09:00 to 8:10 35.67 35.67 35.67 35.67 35.67 35.67
7/24/2021 08:00 to 7:10 35.67 35.67 35.67 35.67 35.67 35.67
7/24/2021 07:00 to 6:10 35.67 35.67 35.67 35.67 35.67 35.67
7/24/2021 06:00 to 5:10 35.67 35.67 35.67 35.67 35.67 35.67
7/24/2021 05:00 to 4:10 35.66 35.67 35.67 35.67 35.67 35.67
7/24/2021 04:00 to 3:10 35.67 35.67 35.67 35.67 35.67 35.67
7/24/2021 03:00 to 2:10 35.67 35.67 35.67 35.67 35.67 35.67
7/24/2021 02:00 to 1:10 35.66 35.67 35.67 35.67 35.66 35.66
7/24/2021 01:00 to 0:10 35.66 35.66 35.66 35.65 35.67 35.67
7/24/2021 00:00 to 23:10 35.67 35.67 35.67 35.67 35.67 35.67
7/23/2021 23:00 to 22:10 35.67 35.67 35.67 35.67 35.66 35.67
7/23/2021 22:00 to 21:10 35.67 35.67 35.66 35.66 35.66 35.66
7/23/2021 21:00 to 20:10 35.66 35.66 35.66 35.66 35.66 35.66
7/23/2021 20:00 to 19:10 35.66 35.66 35.66 35.67 35.68 35.67
7/23/2021 19:00 to 18:10 35.67 35.67 35.67 35.68 35.67 35.68
7/23/2021 18:00 to 17:10 35.68 35.67 35.67 35.67 35.67 35.67
7/23/2021 17:00 to 16:10 35.67 35.67 35.67 35.67 35.67 35.66
7/23/2021 16:00 to 15:10 35.67 35.67 35.67 35.67 35.67 35.66
7/23/2021 15:00 to 14:10 35.67 35.67 35.67 35.66 35.67 35.67
7/23/2021 14:00 to 13:10 35.67 35.66 35.67 35.67 35.67 35.67
7/23/2021 13:00 to 12:10 35.66 35.67 35.67 35.67 35.66 35.66
7/23/2021 12:00 to 11:10 35.66 35.66 35.65 35.66 35.66 35.66
7/23/2021 11:00 to 10:10 35.67 35.66 35.67 35.66 35.67 35.67
7/23/2021 10:00 to 9:10 35.66 35.67 35.67 35.67 35.67 35.66
7/23/2021 09:00 to 8:10 35.67 35.67 35.67 35.67 35.67 35.67
7/23/2021 08:00 to 7:10 35.67 35.67 35.67 35.67 35.67 35.67
7/23/2021 07:00 to 6:10 35.67 35.67 35.67 35.67 35.67 35.67
7/23/2021 06:00 to 5:10 35.67 35.67 35.67 35.67 35.67 35.67
7/23/2021 05:00 to 4:10 35.67 35.67 35.67 35.67 35.67 35.66
7/23/2021 04:00 to 3:10 35.66 35.66 35.66 35.66 35.66 35.66
7/23/2021 03:00 to 2:10 35.66 35.65 35.65 35.65 35.62 35.64
7/23/2021 02:00 to 1:10 35.67 35.67 35.67 35.67 35.67 35.67
7/23/2021 01:00 to 0:10 35.67 35.67 35.67 35.67 35.67 35.67